sensor_id;sensor_type;location;lat;lon;timestamp;pressure;altitude;pressure_sealevel;temperature;humidity
35331;BME280;21441;52.190;20.910;2022-07-29T00:00:14;100681.94;;;17.09;78.87
35331;BME280;21441;52.190;20.910;2022-07-29T00:03:01;100681.31;;;17.07;78.79
35331;BME280;21441;52.190;20.910;2022-07-29T00:05:28;100683.56;;;16.97;79.39
35331;BME280;21441;52.190;20.910;2022-07-29T00:07:55;100688.53;;;16.94;79.72
35331;BME280;21441;52.190;20.910;2022-07-29T00:10:23;100686.44;;;16.89;79.98
35331;BME280;21441;52.190;20.910;2022-07-29T00:12:50;100679.59;;;16.86;80.39
35331;BME280;21441;52.190;20.910;2022-07-29T00:15:17;100688.09;;;16.97;79.57
35331;BME280;21441;52.190;20.910;2022-07-29T00:17:44;100686.03;;;16.92;80.15
35331;BME280;21441;52.190;20.910;2022-07-29T00:20:11;100688.09;;;16.90;79.89
35331;BME280;21441;52.190;20.910;2022-07-29T00:22:38;100694.53;;;16.96;79.77
35331;BME280;21441;52.190;20.910;2022-07-29T00:25:06;100696.81;;;16.99;79.84
35331;BME280;21441;52.190;20.910;2022-07-29T00:27:35;100695.34;;;16.89;79.98
35331;BME280;21441;52.190;20.910;2022-07-29T00:30:02;100692.22;;;16.86;80.11
35331;BME280;21441;52.190;20.910;2022-07-29T00:32:29;100692.66;;;16.89;80.08
35331;BME280;21441;52.190;20.910;2022-07-29T00:34:56;100695.97;;;16.91;79.75
35331;BME280;21441;52.190;20.910;2022-07-29T00:37:41;100691.03;;;16.95;79.68
35331;BME280;21441;52.190;20.910;2022-07-29T00:40:08;100686.44;;;16.89;79.78
35331;BME280;21441;52.190;20.910;2022-07-29T00:42:42;100684.34;;;16.84;80.24
35331;BME280;21441;52.190;20.910;2022-07-29T00:45:10;100675.78;;;16.74;80.17
35331;BME280;21441;52.190;20.910;2022-07-29T00:47:37;100675.66;;;16.89;79.82
35331;BME280;21441;52.190;20.910;2022-07-29T00:50:05;100673.75;;;16.83;79.61
35331;BME280;21441;52.190;20.910;2022-07-29T00:52:33;100668.94;;;16.71;80.24
35331;BME280;21441;52.190;20.910;2022-07-29T00:55:03;100669.97;;;16.77;80.15
35331;BME280;21441;52.190;20.910;2022-07-29T00:57:30;100676.28;;;16.91;79.55
35331;BME280;21441;52.190;20.910;2022-07-29T00:59:59;100676.00;;;16.79;79.78
35331;BME280;21441;52.190;20.910;2022-07-29T01:02:26;100678.31;;;16.82;80.07
35331;BME280;21441;52.190;20.910;2022-07-29T01:04:53;100681.38;;;16.79;80.20
35331;BME280;21441;52.190;20.910;2022-07-29T01:07:20;100676.47;;;16.83;79.96
35331;BME280;21441;52.190;20.910;2022-07-29T01:09:47;100683.03;;;16.74;80.74
35331;BME280;21441;52.190;20.910;2022-07-29T01:12:19;100671.28;;;16.88;80.19
35331;BME280;21441;52.190;20.910;2022-07-29T01:14:49;100674.13;;;16.73;80.95
35331;BME280;21441;52.190;20.910;2022-07-29T01:17:22;100680.56;;;16.79;80.86
35331;BME280;21441;52.190;20.910;2022-07-29T01:19:57;100679.69;;;16.71;81.92
35331;BME280;21441;52.190;20.910;2022-07-29T01:22:35;100676.38;;;16.69;81.81
35331;BME280;21441;52.190;20.910;2022-07-29T01:25:19;100679.66;;;16.65;82.37
35331;BME280;21441;52.190;20.910;2022-07-29T01:28:01;100681.28;;;16.59;82.85
35331;BME280;21441;52.190;20.910;2022-07-29T01:30:38;100677.53;;;16.47;84.01
35331;BME280;21441;52.190;20.910;2022-07-29T01:33:07;100677.28;;;16.48;84.65
35331;BME280;21441;52.190;20.910;2022-07-29T01:35:39;100676.44;;;16.41;85.93
35331;BME280;21441;52.190;20.910;2022-07-29T01:38:09;100673.34;;;16.44;86.66
35331;BME280;21441;52.190;20.910;2022-07-29T01:40:41;100680.78;;;16.36;88.46
35331;BME280;21441;52.190;20.910;2022-07-29T01:43:12;100689.00;;;16.27;89.50
35331;BME280;21441;52.190;20.910;2022-07-29T01:45:45;100695.66;;;16.32;90.67
35331;BME280;21441;52.190;20.910;2022-07-29T01:48:17;100677.38;;;16.20;92.20
35331;BME280;21441;52.190;20.910;2022-07-29T01:50:50;100674.69;;;16.20;92.73
35331;BME280;21441;52.190;20.910;2022-07-29T01:53:23;100690.59;;;16.22;94.38
35331;BME280;21441;52.190;20.910;2022-07-29T01:55:53;100683.41;;;16.29;94.44
35331;BME280;21441;52.190;20.910;2022-07-29T01:58:21;100687.09;;;16.21;95.37
35331;BME280;21441;52.190;20.910;2022-07-29T02:00:51;100684.16;;;16.16;96.02
35331;BME280;21441;52.190;20.910;2022-07-29T02:03:19;100680.00;;;16.14;97.16
35331;BME280;21441;52.190;20.910;2022-07-29T02:05:47;100692.03;;;16.18;96.96
35331;BME280;21441;52.190;20.910;2022-07-29T02:08:15;100691.38;;;16.16;98.15
35331;BME280;21441;52.190;20.910;2022-07-29T02:10:44;100693.63;;;16.05;99.46
35331;BME280;21441;52.190;20.910;2022-07-29T02:13:12;100693.44;;;16.14;99.61
35331;BME280;21441;52.190;20.910;2022-07-29T02:15:41;100693.84;;;16.11;99.88
35331;BME280;21441;52.190;20.910;2022-07-29T02:18:14;100695.25;;;16.06;100.00
35331;BME280;21441;52.190;20.910;2022-07-29T02:20:44;100689.25;;;16.04;100.00
35331;BME280;21441;52.190;20.910;2022-07-29T02:23:14;100689.19;;;15.98;100.00
35331;BME280;21441;52.190;20.910;2022-07-29T02:25:43;100688.13;;;15.92;100.00
35331;BME280;21441;52.190;20.910;2022-07-29T02:28:10;100687.56;;;15.97;100.00
35331;BME280;21441;52.190;20.910;2022-07-29T02:30:40;100684.81;;;15.90;100.00
35331;BME280;21441;52.190;20.910;2022-07-29T02:33:09;100688.50;;;15.89;100.00
35331;BME280;21441;52.190;20.910;2022-07-29T02:35:41;100691.28;;;16.02;100.00
35331;BME280;21441;52.190;20.910;2022-07-29T02:38:12;100681.28;;;15.90;100.00
35331;BME280;21441;52.190;20.910;2022-07-29T02:40:58;100685.19;;;15.87;100.00
35331;BME280;21441;52.190;20.910;2022-07-29T02:43:27;100689.59;;;15.95;100.00
35331;BME280;21441;52.190;20.910;2022-07-29T02:45:56;100692.25;;;15.88;100.00
35331;BME280;21441;52.190;20.910;2022-07-29T02:48:33;100694.47;;;15.84;100.00
35331;BME280;21441;52.190;20.910;2022-07-29T02:51:06;100690.78;;;15.85;100.00
35331;BME280;21441;52.190;20.910;2022-07-29T02:53:35;100695.56;;;15.90;100.00
35331;BME280;21441;52.190;20.910;2022-07-29T02:56:08;100697.81;;;15.86;100.00
35331;BME280;21441;52.190;20.910;2022-07-29T02:58:40;100701.31;;;15.87;100.00
35331;BME280;21441;52.190;20.910;2022-07-29T03:01:08;100701.09;;;15.82;100.00
35331;BME280;21441;52.190;20.910;2022-07-29T03:03:39;100695.25;;;15.78;100.00
35331;BME280;21441;52.190;20.910;2022-07-29T03:06:08;100694.88;;;15.81;100.00
35331;BME280;21441;52.190;20.910;2022-07-29T03:08:36;100688.28;;;15.84;100.00
35331;BME280;21441;52.190;20.910;2022-07-29T03:11:04;100688.22;;;15.77;100.00
35331;BME280;21441;52.190;20.910;2022-07-29T03:13:31;100683.84;;;15.76;100.00
35331;BME280;21441;52.190;20.910;2022-07-29T03:15:58;100688.47;;;15.82;100.00
35331;BME280;21441;52.190;20.910;2022-07-29T03:18:26;100685.41;;;15.85;100.00
35331;BME280;21441;52.190;20.910;2022-07-29T03:20:53;100681.22;;;15.83;100.00
35331;BME280;21441;52.190;20.910;2022-07-29T03:23:22;100697.03;;;15.93;100.00
35331;BME280;21441;52.190;20.910;2022-07-29T03:25:52;100698.56;;;15.80;100.00
35331;BME280;21441;52.190;20.910;2022-07-29T03:28:19;100698.50;;;15.95;100.00
35331;BME280;21441;52.190;20.910;2022-07-29T03:30:46;100693.16;;;16.02;100.00
35331;BME280;21441;52.190;20.910;2022-07-29T03:33:13;100698.41;;;16.10;100.00
35331;BME280;21441;52.190;20.910;2022-07-29T03:35:40;100696.31;;;16.05;100.00
35331;BME280;21441;52.190;20.910;2022-07-29T03:38:07;100689.28;;;16.11;100.00
35331;BME280;21441;52.190;20.910;2022-07-29T03:40:38;100694.75;;;16.24;100.00
35331;BME280;21441;52.190;20.910;2022-07-29T03:43:08;100692.53;;;16.28;100.00
35331;BME280;21441;52.190;20.910;2022-07-29T03:45:37;100687.59;;;16.32;100.00
35331;BME280;21441;52.190;20.910;2022-07-29T03:48:08;100701.38;;;16.22;100.00
35331;BME280;21441;52.190;20.910;2022-07-29T03:50:35;100696.44;;;16.25;100.00
35331;BME280;21441;52.190;20.910;2022-07-29T03:53:03;100694.28;;;16.42;100.00
35331;BME280;21441;52.190;20.910;2022-07-29T03:55:40;100692.81;;;16.46;100.00
35331;BME280;21441;52.190;20.910;2022-07-29T03:58:08;100687.72;;;16.58;100.00
35331;BME280;21441;52.190;20.910;2022-07-29T04:00:39;100697.03;;;16.56;100.00
35331;BME280;21441;52.190;20.910;2022-07-29T04:03:06;100695.16;;;16.56;100.00
35331;BME280;21441;52.190;20.910;2022-07-29T04:05:34;100693.94;;;16.59;100.00
35331;BME280;21441;52.190;20.910;2022-07-29T04:08:00;100695.72;;;16.80;100.00
35331;BME280;21441;52.190;20.910;2022-07-29T04:10:27;100698.88;;;16.97;100.00
35331;BME280;21441;52.190;20.910;2022-07-29T04:12:56;100693.03;;;16.80;100.00
35331;BME280;21441;52.190;20.910;2022-07-29T04:15:23;100699.06;;;16.82;100.00
35331;BME280;21441;52.190;20.910;2022-07-29T04:17:49;100698.06;;;16.96;100.00
35331;BME280;21441;52.190;20.910;2022-07-29T04:20:16;100694.16;;;17.05;100.00
35331;BME280;21441;52.190;20.910;2022-07-29T04:22:43;100692.06;;;17.01;100.00
35331;BME280;21441;52.190;20.910;2022-07-29T04:25:10;100696.69;;;17.27;100.00
35331;BME280;21441;52.190;20.910;2022-07-29T04:27:37;100692.38;;;17.39;99.10
35331;BME280;21441;52.190;20.910;2022-07-29T04:30:26;100700.06;;;17.62;96.68
35331;BME280;21441;52.190;20.910;2022-07-29T04:32:53;100695.50;;;17.63;96.61
35331;BME280;21441;52.190;20.910;2022-07-29T04:35:19;100696.97;;;17.59;95.92
35331;BME280;21441;52.190;20.910;2022-07-29T04:37:46;100695.91;;;17.60;96.37
35331;BME280;21441;52.190;20.910;2022-07-29T04:40:14;100694.25;;;17.52;96.72
35331;BME280;21441;52.190;20.910;2022-07-29T04:42:41;100690.31;;;17.55;96.77
35331;BME280;21441;52.190;20.910;2022-07-29T04:45:08;100698.19;;;17.63;96.78
35331;BME280;21441;52.190;20.910;2022-07-29T04:47:36;100707.13;;;17.57;97.11
35331;BME280;21441;52.190;20.910;2022-07-29T04:50:04;100704.22;;;17.71;95.65
35331;BME280;21441;52.190;20.910;2022-07-29T04:52:32;100704.47;;;17.97;94.05
35331;BME280;21441;52.190;20.910;2022-07-29T04:55:00;100701.34;;;18.06;92.44
35331;BME280;21441;52.190;20.910;2022-07-29T04:57:27;100693.88;;;18.08;91.61
35331;BME280;21441;52.190;20.910;2022-07-29T04:59:54;100702.59;;;18.17;91.53
35331;BME280;21441;52.190;20.910;2022-07-29T05:02:20;100713.16;;;18.32;89.51
35331;BME280;21441;52.190;20.910;2022-07-29T05:04:49;100715.44;;;18.22;89.74
35331;BME280;21441;52.190;20.910;2022-07-29T05:07:15;100715.66;;;18.27;89.34
35331;BME280;21441;52.190;20.910;2022-07-29T05:09:42;100708.78;;;18.24;88.65
35331;BME280;21441;52.190;20.910;2022-07-29T05:12:09;100718.38;;;18.27;87.54
35331;BME280;21441;52.190;20.910;2022-07-29T05:14:36;100716.69;;;18.26;87.89
35331;BME280;21441;52.190;20.910;2022-07-29T05:17:03;100725.22;;;18.29;87.48
35331;BME280;21441;52.190;20.910;2022-07-29T05:19:30;100725.41;;;18.34;88.36
35331;BME280;21441;52.190;20.910;2022-07-29T05:21:59;100721.28;;;18.19;88.43
35331;BME280;21441;52.190;20.910;2022-07-29T05:24:26;100735.19;;;18.09;88.18
35331;BME280;21441;52.190;20.910;2022-07-29T05:26:53;100728.97;;;18.02;88.55
35331;BME280;21441;52.190;20.910;2022-07-29T05:29:20;100727.31;;;18.14;87.41
35331;BME280;21441;52.190;20.910;2022-07-29T05:31:47;100729.97;;;18.34;86.53
35331;BME280;21441;52.190;20.910;2022-07-29T05:34:13;100721.44;;;18.44;85.22
35331;BME280;21441;52.190;20.910;2022-07-29T05:36:40;100723.88;;;18.65;83.38
35331;BME280;21441;52.190;20.910;2022-07-29T05:39:09;100724.34;;;18.55;84.00
35331;BME280;21441;52.190;20.910;2022-07-29T05:41:35;100725.31;;;18.81;83.44
35331;BME280;21441;52.190;20.910;2022-07-29T05:44:02;100723.22;;;18.83;82.31
35331;BME280;21441;52.190;20.910;2022-07-29T05:46:29;100722.53;;;18.94;82.33
35331;BME280;21441;52.190;20.910;2022-07-29T05:48:56;100708.88;;;19.28;81.22
35331;BME280;21441;52.190;20.910;2022-07-29T05:51:23;100701.25;;;19.50;79.33
35331;BME280;21441;52.190;20.910;2022-07-29T05:53:50;100705.63;;;19.76;76.62
35331;BME280;21441;52.190;20.910;2022-07-29T05:56:18;100714.31;;;19.85;75.78
35331;BME280;21441;52.190;20.910;2022-07-29T05:58:45;100716.69;;;19.99;76.07
35331;BME280;21441;52.190;20.910;2022-07-29T06:01:12;100706.41;;;20.08;74.72
35331;BME280;21441;52.190;20.910;2022-07-29T06:03:39;100708.25;;;20.33;73.01
35331;BME280;21441;52.190;20.910;2022-07-29T06:06:06;100694.56;;;20.46;71.72
35331;BME280;21441;52.190;20.910;2022-07-29T06:08:34;100699.69;;;20.54;71.82
35331;BME280;21441;52.190;20.910;2022-07-29T06:11:02;100701.00;;;20.70;69.14
35331;BME280;21441;52.190;20.910;2022-07-29T06:13:30;100702.19;;;20.74;68.26
35331;BME280;21441;52.190;20.910;2022-07-29T06:15:58;100702.16;;;20.37;70.76
35331;BME280;21441;52.190;20.910;2022-07-29T06:18:24;100698.25;;;20.52;69.75
35331;BME280;21441;52.190;20.910;2022-07-29T06:20:51;100693.00;;;20.57;70.43
35331;BME280;21441;52.190;20.910;2022-07-29T06:23:20;100698.44;;;20.75;68.82
35331;BME280;21441;52.190;20.910;2022-07-29T06:25:46;100703.97;;;20.44;71.43
35331;BME280;21441;52.190;20.910;2022-07-29T06:28:14;100693.25;;;20.74;69.40
35331;BME280;21441;52.190;20.910;2022-07-29T06:30:42;100691.88;;;20.83;67.84
35331;BME280;21441;52.190;20.910;2022-07-29T06:33:09;100692.22;;;21.05;67.13
35331;BME280;21441;52.190;20.910;2022-07-29T06:35:36;100688.50;;;21.18;65.53
35331;BME280;21441;52.190;20.910;2022-07-29T06:38:04;100696.91;;;21.28;65.82
35331;BME280;21441;52.190;20.910;2022-07-29T06:40:31;100694.97;;;21.47;64.27
35331;BME280;21441;52.190;20.910;2022-07-29T06:43:16;100699.34;;;21.48;64.58
35331;BME280;21441;52.190;20.910;2022-07-29T06:45:44;100700.56;;;21.34;63.67
35331;BME280;21441;52.190;20.910;2022-07-29T06:48:11;100703.25;;;21.22;64.23
35331;BME280;21441;52.190;20.910;2022-07-29T06:50:38;100706.13;;;20.78;67.41
35331;BME280;21441;52.190;20.910;2022-07-29T06:53:05;100707.88;;;21.03;65.30
35331;BME280;21441;52.190;20.910;2022-07-29T06:55:31;100702.78;;;21.25;65.30
35331;BME280;21441;52.190;20.910;2022-07-29T06:57:58;100707.63;;;21.53;64.70
35331;BME280;21441;52.190;20.910;2022-07-29T07:00:25;100700.66;;;21.46;65.35
35331;BME280;21441;52.190;20.910;2022-07-29T07:02:53;100708.69;;;21.22;65.93
35331;BME280;21441;52.190;20.910;2022-07-29T07:05:20;100698.91;;;21.21;65.77
35331;BME280;21441;52.190;20.910;2022-07-29T07:07:47;100695.63;;;21.61;63.04
35331;BME280;21441;52.190;20.910;2022-07-29T07:10:14;100697.38;;;21.55;63.47
35331;BME280;21441;52.190;20.910;2022-07-29T07:12:41;100698.09;;;21.32;64.97
35331;BME280;21441;52.190;20.910;2022-07-29T07:15:09;100696.06;;;21.58;63.65
35331;BME280;21441;52.190;20.910;2022-07-29T07:17:36;100694.53;;;21.50;64.44
35331;BME280;21441;52.190;20.910;2022-07-29T07:20:05;100689.84;;;20.78;67.97
35331;BME280;21441;52.190;20.910;2022-07-29T07:22:32;100696.00;;;20.86;67.73
35331;BME280;21441;52.190;20.910;2022-07-29T07:24:59;100697.81;;;21.22;66.53
35331;BME280;21441;52.190;20.910;2022-07-29T07:27:26;100697.63;;;21.35;65.83
35331;BME280;21441;52.190;20.910;2022-07-29T07:29:53;100693.25;;;21.64;64.22
35331;BME280;21441;52.190;20.910;2022-07-29T07:32:20;100696.16;;;21.51;63.90
35331;BME280;21441;52.190;20.910;2022-07-29T07:34:47;100697.03;;;21.52;64.82
35331;BME280;21441;52.190;20.910;2022-07-29T07:37:15;100695.72;;;21.54;62.81
35331;BME280;21441;52.190;20.910;2022-07-29T07:39:44;100691.00;;;21.61;62.49
35331;BME280;21441;52.190;20.910;2022-07-29T07:42:11;100684.16;;;21.59;64.33
35331;BME280;21441;52.190;20.910;2022-07-29T07:44:39;100685.03;;;22.07;60.43
35331;BME280;21441;52.190;20.910;2022-07-29T07:47:06;100697.31;;;22.33;58.89
35331;BME280;21441;52.190;20.910;2022-07-29T07:49:33;100694.66;;;22.61;56.29
35331;BME280;21441;52.190;20.910;2022-07-29T07:51:59;100691.25;;;22.54;55.04
35331;BME280;21441;52.190;20.910;2022-07-29T07:54:28;100695.16;;;22.58;54.81
35331;BME280;21441;52.190;20.910;2022-07-29T07:56:55;100691.97;;;22.50;56.81
35331;BME280;21441;52.190;20.910;2022-07-29T07:59:22;100698.03;;;22.40;57.29
35331;BME280;21441;52.190;20.910;2022-07-29T08:01:49;100699.19;;;22.20;58.86
35331;BME280;21441;52.190;20.910;2022-07-29T08:04:16;100695.78;;;22.49;56.72
35331;BME280;21441;52.190;20.910;2022-07-29T08:06:43;100687.28;;;22.85;55.37
35331;BME280;21441;52.190;20.910;2022-07-29T08:09:09;100686.31;;;23.03;53.09
35331;BME280;21441;52.190;20.910;2022-07-29T08:11:38;100686.69;;;23.24;52.99
35331;BME280;21441;52.190;20.910;2022-07-29T08:14:04;100692.31;;;23.34;52.00
35331;BME280;21441;52.190;20.910;2022-07-29T08:16:31;100691.28;;;23.52;51.47
35331;BME280;21441;52.190;20.910;2022-07-29T08:18:58;100681.94;;;23.48;51.40
35331;BME280;21441;52.190;20.910;2022-07-29T08:21:25;100680.81;;;23.61;52.00
35331;BME280;21441;52.190;20.910;2022-07-29T08:23:52;100683.00;;;23.76;52.35
35331;BME280;21441;52.190;20.910;2022-07-29T08:26:41;100683.25;;;23.62;51.86
35331;BME280;21441;52.190;20.910;2022-07-29T08:29:08;100689.84;;;23.78;50.70
35331;BME280;21441;52.190;20.910;2022-07-29T08:31:36;100693.91;;;23.64;50.95
35331;BME280;21441;52.190;20.910;2022-07-29T08:34:04;100690.88;;;23.77;51.03
35331;BME280;21441;52.190;20.910;2022-07-29T08:36:31;100688.06;;;24.06;51.11
35331;BME280;21441;52.190;20.910;2022-07-29T08:38:59;100681.19;;;24.20;49.00
35331;BME280;21441;52.190;20.910;2022-07-29T08:41:26;100685.84;;;24.42;49.07
35331;BME280;21441;52.190;20.910;2022-07-29T08:43:54;100680.44;;;24.64;47.67
35331;BME280;21441;52.190;20.910;2022-07-29T08:46:21;100677.00;;;24.52;48.58
35331;BME280;21441;52.190;20.910;2022-07-29T08:48:49;100663.69;;;24.77;48.02
35331;BME280;21441;52.190;20.910;2022-07-29T08:51:18;100678.69;;;25.02;47.84
35331;BME280;21441;52.190;20.910;2022-07-29T08:53:47;100679.66;;;25.18;47.43
35331;BME280;21441;52.190;20.910;2022-07-29T08:56:15;100679.47;;;25.51;47.24
35331;BME280;21441;52.190;20.910;2022-07-29T08:58:44;100668.31;;;25.26;45.87
35331;BME280;21441;52.190;20.910;2022-07-29T09:01:14;100671.97;;;25.37;45.88
35331;BME280;21441;52.190;20.910;2022-07-29T09:03:44;100662.84;;;25.26;45.18
35331;BME280;21441;52.190;20.910;2022-07-29T09:06:13;100660.31;;;24.70;44.95
35331;BME280;21441;52.190;20.910;2022-07-29T09:08:41;100662.09;;;24.81;45.59
35331;BME280;21441;52.190;20.910;2022-07-29T09:11:08;100653.81;;;24.98;46.32
35331;BME280;21441;52.190;20.910;2022-07-29T09:13:35;100656.75;;;25.19;46.06
35331;BME280;21441;52.190;20.910;2022-07-29T09:16:03;100662.44;;;25.71;44.55
35331;BME280;21441;52.190;20.910;2022-07-29T09:18:36;100661.88;;;26.07;42.36
35331;BME280;21441;52.190;20.910;2022-07-29T09:21:05;100659.97;;;26.07;42.72
35331;BME280;21441;52.190;20.910;2022-07-29T09:24:04;100654.84;;;26.21;43.05
35331;BME280;21441;52.190;20.910;2022-07-29T09:26:34;100653.03;;;25.94;42.67
35331;BME280;21441;52.190;20.910;2022-07-29T09:29:08;100654.66;;;25.90;42.66
35331;BME280;21441;52.190;20.910;2022-07-29T09:31:37;100641.38;;;26.04;42.26
35331;BME280;21441;52.190;20.910;2022-07-29T09:34:06;100635.25;;;26.45;41.71
35331;BME280;21441;52.190;20.910;2022-07-29T09:36:39;100634.44;;;26.39;41.82
35331;BME280;21441;52.190;20.910;2022-07-29T09:39:06;100647.69;;;25.78;42.43
35331;BME280;21441;52.190;20.910;2022-07-29T09:41:44;100632.06;;;26.05;43.25
35331;BME280;21441;52.190;20.910;2022-07-29T09:44:12;100642.44;;;26.56;41.93
35331;BME280;21441;52.190;20.910;2022-07-29T09:46:40;100640.47;;;26.46;40.24
35331;BME280;21441;52.190;20.910;2022-07-29T09:49:11;100636.94;;;26.51;40.72
35331;BME280;21441;52.190;20.910;2022-07-29T09:51:40;100629.75;;;26.34;40.43
35331;BME280;21441;52.190;20.910;2022-07-29T09:54:21;100635.81;;;26.42;39.88
35331;BME280;21441;52.190;20.910;2022-07-29T09:56:49;100642.91;;;26.38;40.98
35331;BME280;21441;52.190;20.910;2022-07-29T09:59:16;100640.81;;;26.02;41.46
35331;BME280;21441;52.190;20.910;2022-07-29T10:01:46;100630.06;;;25.90;42.27
35331;BME280;21441;52.190;20.910;2022-07-29T10:04:15;100639.13;;;25.96;42.29
35331;BME280;21441;52.190;20.910;2022-07-29T10:06:58;100641.56;;;25.92;41.63
35331;BME280;21441;52.190;20.910;2022-07-29T10:09:26;100616.72;;;25.99;41.05
35331;BME280;21441;52.190;20.910;2022-07-29T10:12:04;100621.22;;;26.26;40.72
35331;BME280;21441;52.190;20.910;2022-07-29T10:14:32;100624.91;;;25.94;42.16
35331;BME280;21441;52.190;20.910;2022-07-29T10:16:59;100620.22;;;25.52;42.33
35331;BME280;21441;52.190;20.910;2022-07-29T10:19:29;100622.94;;;25.52;43.39
35331;BME280;21441;52.190;20.910;2022-07-29T10:21:57;100616.13;;;25.92;42.84
35331;BME280;21441;52.190;20.910;2022-07-29T10:24:25;100608.66;;;26.25;41.74
35331;BME280;21441;52.190;20.910;2022-07-29T10:26:53;100612.19;;;26.83;40.91
35331;BME280;21441;52.190;20.910;2022-07-29T10:29:21;100609.47;;;27.09;39.54
35331;BME280;21441;52.190;20.910;2022-07-29T10:31:53;100606.78;;;27.29;39.20
35331;BME280;21441;52.190;20.910;2022-07-29T10:34:36;100608.41;;;27.41;39.51
35331;BME280;21441;52.190;20.910;2022-07-29T10:37:08;100608.94;;;27.37;38.16
35331;BME280;21441;52.190;20.910;2022-07-29T10:39:53;100600.34;;;26.57;39.47
35331;BME280;21441;52.190;20.910;2022-07-29T10:42:23;100611.06;;;26.89;40.02
35331;BME280;21441;52.190;20.910;2022-07-29T10:44:52;100600.69;;;26.91;39.65
35331;BME280;21441;52.190;20.910;2022-07-29T10:47:21;100603.44;;;27.07;39.03
35331;BME280;21441;52.190;20.910;2022-07-29T10:50:00;100599.03;;;26.90;39.32
35331;BME280;21441;52.190;20.910;2022-07-29T10:52:53;100609.19;;;26.90;40.29
35331;BME280;21441;52.190;20.910;2022-07-29T10:55:32;100597.13;;;27.11;39.14
35331;BME280;21441;52.190;20.910;2022-07-29T10:58:15;100577.66;;;26.67;38.91
35331;BME280;21441;52.190;20.910;2022-07-29T11:00:43;100594.09;;;26.82;38.69
35331;BME280;21441;52.190;20.910;2022-07-29T11:03:45;100595.22;;;27.17;39.40
35331;BME280;21441;52.190;20.910;2022-07-29T11:06:15;100590.88;;;27.47;38.10
35331;BME280;21441;52.190;20.910;2022-07-29T11:08:42;100581.31;;;27.34;38.67
35331;BME280;21441;52.190;20.910;2022-07-29T11:11:36;100588.69;;;27.33;38.11
35331;BME280;21441;52.190;20.910;2022-07-29T11:14:07;100583.47;;;27.52;38.41
35331;BME280;21441;52.190;20.910;2022-07-29T11:16:59;100575.16;;;28.04;38.56
35331;BME280;21441;52.190;20.910;2022-07-29T11:19:28;100581.78;;;27.87;38.09
35331;BME280;21441;52.190;20.910;2022-07-29T11:21:56;100581.03;;;27.30;38.05
35331;BME280;21441;52.190;20.910;2022-07-29T11:24:26;100582.38;;;27.58;38.22
35331;BME280;21441;52.190;20.910;2022-07-29T11:27:07;100585.66;;;27.40;39.02
35331;BME280;21441;52.190;20.910;2022-07-29T11:29:35;100575.50;;;27.71;37.93
35331;BME280;21441;52.190;20.910;2022-07-29T11:32:09;100572.19;;;27.90;37.04
35331;BME280;21441;52.190;20.910;2022-07-29T11:34:36;100570.84;;;27.67;37.57
35331;BME280;21441;52.190;20.910;2022-07-29T11:37:17;100573.53;;;27.97;36.96
35331;BME280;21441;52.190;20.910;2022-07-29T11:39:45;100567.34;;;28.36;36.51
35331;BME280;21441;52.190;20.910;2022-07-29T11:42:38;100565.13;;;28.49;35.56
35331;BME280;21441;52.190;20.910;2022-07-29T11:45:07;100559.38;;;28.85;35.52
35331;BME280;21441;52.190;20.910;2022-07-29T11:47:37;100559.03;;;29.31;35.79
35331;BME280;21441;52.190;20.910;2022-07-29T11:50:07;100560.06;;;29.06;35.57
35331;BME280;21441;52.190;20.910;2022-07-29T11:52:37;100557.28;;;29.45;34.64
35331;BME280;21441;52.190;20.910;2022-07-29T11:55:10;100559.50;;;29.09;34.20
35331;BME280;21441;52.190;20.910;2022-07-29T11:57:46;100559.38;;;28.90;35.38
35331;BME280;21441;52.190;20.910;2022-07-29T12:00:22;100552.44;;;29.61;34.55
35331;BME280;21441;52.190;20.910;2022-07-29T12:02:49;100546.59;;;30.16;33.52
35331;BME280;21441;52.190;20.910;2022-07-29T12:05:17;100537.13;;;29.79;33.72
35331;BME280;21441;52.190;20.910;2022-07-29T12:07:46;100550.91;;;29.50;34.01
35331;BME280;21441;52.190;20.910;2022-07-29T12:10:13;100533.84;;;29.24;34.43
35331;BME280;21441;52.190;20.910;2022-07-29T12:12:40;100544.88;;;29.48;34.50
35331;BME280;21441;52.190;20.910;2022-07-29T12:15:12;100549.31;;;29.44;33.68
35331;BME280;21441;52.190;20.910;2022-07-29T12:17:39;100542.75;;;29.10;33.74
35331;BME280;21441;52.190;20.910;2022-07-29T12:20:07;100546.97;;;28.53;34.90
35331;BME280;21441;52.190;20.910;2022-07-29T12:22:35;100544.78;;;28.89;34.15
35331;BME280;21441;52.190;20.910;2022-07-29T12:25:08;100547.97;;;28.67;33.85
35331;BME280;21441;52.190;20.910;2022-07-29T12:27:36;100550.94;;;28.21;35.84
35331;BME280;21441;52.190;20.910;2022-07-29T12:30:05;100552.66;;;28.07;36.48
35331;BME280;21441;52.190;20.910;2022-07-29T12:32:34;100543.69;;;27.91;35.94
35331;BME280;21441;52.190;20.910;2022-07-29T12:35:05;100537.69;;;27.68;35.85
35331;BME280;21441;52.190;20.910;2022-07-29T12:37:34;100536.81;;;27.88;35.77
35331;BME280;21441;52.190;20.910;2022-07-29T12:40:03;100534.25;;;28.12;35.32
35331;BME280;21441;52.190;20.910;2022-07-29T12:42:31;100539.56;;;27.83;35.96
35331;BME280;21441;52.190;20.910;2022-07-29T12:44:58;100537.97;;;27.67;36.80
35331;BME280;21441;52.190;20.910;2022-07-29T12:47:25;100539.22;;;28.05;36.20
35331;BME280;21441;52.190;20.910;2022-07-29T12:50:07;100544.59;;;28.31;36.71